Terminal Aerodrome Forecast
Issued by NWS

Home | Current Version | Previous Version | Text Only | Print | Product List | Glossary On
Versions: 1 2 3 4 5 6 7 8 9 10 11 12
000
FTUS44 KLZK 231743
TAFBPK
TAF
KBPK 231743Z 2318/2418 05005KT P6SM VCTS SCT045CB BKN250
     FM240100 00000KT P6SM SCT100 BKN250
      TEMPO 2410/2414 5SM BR
     FM241500 08004KT P6SM SCT045 SCT250=

USA.gov is the U.S. government's official web portal to all federal, state and local government web resources and services.